Time;durP1;ratioP1;P1;durP2;ratioP2;P2;SDS_P1;SDS_P2;PMS_P1;PMS_P2;Temp;Humidity;BMP_temperature;BMP_pressure;BME280_temperature;BME280_humidity;BME280_pressure;Samples;Min_cycle;Max_cycle;Signal;HPM_P1;HPM_P2
2023/09/04 00:02:55;;;;;;;7.07;5.33;;;;;;;14.47;100.00;98757.13;6145161;28;20229;-53
2023/09/04 00:05:57;;;;;;;7.10;5.23;;;;;;;14.42;100.00;98751.69;6141402;28;20313;-53
2023/09/04 00:09:00;;;;;;;5.47;4.97;;;;;;;14.38;100.00;98755.88;6143551;28;20230;-55
2023/09/04 00:12:02;;;;;;;5.70;5.03;;;;;;;14.38;100.00;98758.56;6141701;28;20599;-55
2023/09/04 00:15:05;;;;;;;5.77;5.27;;;;;;;14.38;100.00;98763.94;6141078;28;20711;-55
2023/09/04 00:18:08;;;;;;;5.73;5.13;;;;;;;14.40;100.00;98767.19;6154112;28;20225;-53
2023/09/04 00:21:10;;;;;;;5.43;4.90;;;;;;;14.42;100.00;98770.44;6140768;28;20214;-54
2023/09/04 00:24:12;;;;;;;6.67;5.43;;;;;;;14.43;100.00;98767.53;6143114;28;20234;-55
2023/09/04 00:27:14;;;;;;;5.73;5.20;;;;;;;14.48;100.00;98766.84;6143254;28;20297;-55
2023/09/04 00:30:18;;;;;;;5.67;5.17;;;;;;;14.51;100.00;98766.38;6143188;28;20221;-52
2023/09/04 00:33:20;;;;;;;5.73;5.07;;;;;;;14.57;100.00;98761.91;6140527;28;20356;-54
2023/09/04 00:36:22;;;;;;;6.17;5.03;;;;;;;14.58;100.00;98767.03;6130621;28;20308;-54
2023/09/04 00:39:24;;;;;;;5.63;4.90;;;;;;;14.58;100.00;98774.25;6143021;28;20233;-53
2023/09/04 00:42:30;;;;;;;5.90;5.30;;;;;;;14.58;100.00;98772.41;6142252;28;20233;-55
2023/09/04 00:45:35;;;;;;;5.43;4.83;;;;;;;14.60;100.00;98774.84;6140867;28;20299;-55
2023/09/04 00:48:39;;;;;;;6.23;4.60;;;;;;;14.60;100.00;98780.19;6139518;28;21231;-55
2023/09/04 00:51:42;;;;;;;5.13;4.67;;;;;;;14.61;100.00;98779.13;6142922;28;20240;-52
2023/09/04 00:54:45;;;;;;;5.97;5.33;;;;;;;14.66;100.00;98782.72;6143750;28;20242;-55
2023/09/04 00:57:47;;;;;;;5.23;4.83;;;;;;;14.68;100.00;98777.13;6141168;28;20238;-53
2023/09/04 01:00:50;;;;;;;5.77;5.00;;;;;;;14.66;100.00;98780.03;6140195;28;20234;-54
2023/09/04 01:03:52;;;;;;;5.03;4.50;;;;;;;14.70;100.00;98786.56;6142459;28;20233;-55
2023/09/04 01:06:55;;;;;;;5.60;4.80;;;;;;;14.74;100.00;98784.22;6154512;28;20266;-55
2023/09/04 01:09:57;;;;;;;4.57;4.13;;;;;;;14.77;100.00;98782.91;6142461;28;20238;-54
2023/09/04 01:13:38;;;;;;;5.07;4.53;;;;;;;14.81;100.00;98773.31;6141468;28;20249;-54
2023/09/04 01:16:41;;;;;;;4.33;3.93;;;;;;;14.86;100.00;98774.22;6141685;28;20249;-55
2023/09/04 01:19:45;;;;;;;5.30;4.53;;;;;;;14.90;100.00;98769.19;6141889;28;20233;-55
2023/09/04 01:22:47;;;;;;;4.83;4.17;;;;;;;14.96;98.79;98773.56;6140696;28;20268;-55
2023/09/04 01:25:59;;;;;;;4.87;4.17;;;;;;;14.98;98.73;98768.78;6141381;28;20242;-55
2023/09/04 01:29:29;;;;;;;4.47;4.07;;;;;;;15.02;98.72;98766.41;6144475;28;20231;-54
2023/09/04 01:32:37;;;;;;;4.93;4.10;;;;;;;14.89;97.65;98743.41;6140505;28;20781;-53
2023/09/04 01:35:42;;;;;;;4.43;4.03;;;;;;;15.02;98.20;98769.09;6140383;28;20223;-51
2023/09/04 01:38:46;;;;;;;4.20;3.63;;;;;;;15.00;98.53;98766.66;6146336;28;20233;-51
2023/09/04 01:41:50;;;;;;;4.83;4.27;;;;;;;15.04;97.09;98761.63;6124240;28;20257;-55
2023/09/04 01:44:52;;;;;;;5.20;3.80;;;;;;;15.02;97.67;98753.00;6140673;28;20234;-55
2023/09/04 01:47:54;;;;;;;4.97;4.50;;;;;;;14.99;96.83;98754.31;6141615;28;20226;-54
2023/09/04 01:50:56;;;;;;;3.87;3.57;;;;;;;15.01;95.72;98759.44;6138259;28;20230;-53
2023/09/04 01:53:59;;;;;;;5.67;3.97;;;;;;;14.99;96.55;98757.00;6142793;28;20246;-55
2023/09/04 01:57:01;;;;;;;5.83;4.20;;;;;;;14.98;95.50;98765.31;6138437;28;20317;-47
2023/09/04 02:00:04;;;;;;;6.93;4.60;;;;;;;14.98;95.50;98768.00;6157253;28;20214;-55
2023/09/04 02:03:15;;;;;;;4.93;3.97;;;;;;;14.96;95.63;98774.38;6144388;28;20234;-54
2023/09/04 02:06:19;;;;;;;5.20;4.37;;;;;;;14.95;96.03;98777.31;6141810;28;20317;-54
2023/09/04 02:09:21;;;;;;;4.20;3.80;;;;;;;14.95;96.20;98778.13;6145431;28;20229;-55
2023/09/04 02:12:23;;;;;;;6.30;4.30;;;;;;;15.01;93.97;98786.25;6143163;28;20604;-55
2023/09/04 02:15:25;;;;;;;4.23;3.80;;;;;;;15.02;94.20;98788.69;6141033;28;20824;-53
2023/09/04 02:18:28;;;;;;;4.17;3.77;;;;;;;15.02;94.46;98786.00;6143986;28;20239;-55
2023/09/04 02:21:30;;;;;;;4.60;4.20;;;;;;;14.98;94.74;98787.59;6145737;28;20237;-54
2023/09/04 02:24:33;;;;;;;3.60;3.30;;;;;;;14.98;94.68;98779.53;6134872;28;20242;-54
2023/09/04 02:27:35;;;;;;;4.20;3.80;;;;;;;14.95;95.19;98782.69;6143854;28;20328;-55
2023/09/04 02:30:38;;;;;;;5.67;4.17;;;;;;;14.93;95.69;98771.41;6146919;28;20241;-55
2023/09/04 02:33:41;;;;;;;3.83;3.43;;;;;;;14.89;95.89;98772.94;6142672;28;20245;-54
2023/09/04 02:36:43;;;;;;;4.87;3.97;;;;;;;14.83;95.78;98774.72;6145454;28;20242;-52
2023/09/04 02:39:46;;;;;;;6.10;3.83;;;;;;;14.76;95.47;98779.41;6145007;28;20245;-55
2023/09/04 02:42:48;;;;;;;4.43;3.87;;;;;;;14.77;95.02;98780.22;6146078;28;20329;-53
2023/09/04 02:45:51;;;;;;;5.47;4.40;;;;;;;14.74;95.76;98786.09;6144497;28;20233;-55
2023/09/04 02:48:54;;;;;;;4.20;3.80;;;;;;;14.71;95.62;98784.69;6158558;28;20238;-55
2023/09/04 02:51:56;;;;;;;5.10;4.23;;;;;;;14.69;95.07;98792.97;6141917;28;20238;-54
2023/09/04 02:54:59;;;;;;;3.97;3.60;;;;;;;14.69;94.92;98794.84;6134779;28;20241;-55
2023/09/04 02:58:02;;;;;;;6.53;4.53;;;;;;;14.67;95.29;98788.91;6146722;28;20362;-54
2023/09/04 03:01:04;;;;;;;4.23;3.83;;;;;;;14.64;95.54;98784.84;6144348;28;20237;-55
2023/09/04 03:04:08;;;;;;;4.83;4.30;;;;;;;14.64;95.78;98792.88;6143526;28;20287;-53
2023/09/04 03:07:10;;;;;;;8.07;4.70;;;;;;;14.62;95.53;98792.31;6145946;28;20283;-51
2023/09/04 03:10:12;;;;;;;6.03;4.50;;;;;;;14.61;95.36;98790.69;6140761;28;20241;-54
2023/09/04 03:13:14;;;;;;;4.83;4.33;;;;;;;14.60;96.22;98788.25;6143842;28;20272;-55
2023/09/04 03:16:16;;;;;;;5.27;4.40;;;;;;;14.57;95.49;98788.72;6141416;28;20242;-54
2023/09/04 03:19:19;;;;;;;4.67;4.27;;;;;;;14.53;96.01;98796.44;6143628;28;20239;-54
2023/09/04 03:22:22;;;;;;;4.30;3.90;;;;;;;14.51;96.16;98797.72;6142799;28;20273;-55
2023/09/04 03:25:25;;;;;;;4.60;4.20;;;;;;;14.45;96.42;98799.47;6143565;28;20226;-55
2023/09/04 03:28:28;;;;;;;5.77;4.77;;;;;;;14.41;96.16;98803.69;6142859;28;20738;-55
2023/09/04 03:31:31;;;;;;;4.40;4.00;;;;;;;14.37;96.85;98814.06;6147140;28;20622;-54
2023/09/04 03:34:34;;;;;;;4.57;4.13;;;;;;;14.37;96.25;98813.25;6128224;28;20245;-54
2023/09/04 03:37:36;;;;;;;5.27;4.07;;;;;;;14.35;96.47;98812.69;6141749;28;20245;-54
2023/09/04 03:40:39;;;;;;;4.20;3.80;;;;;;;14.23;96.71;98809.22;6144473;28;20246;-55
2023/09/04 03:43:41;;;;;;;4.83;4.33;;;;;;;14.27;96.40;98821.09;6142989;28;20320;-54
2023/09/04 03:46:44;;;;;;;6.37;4.00;;;;;;;14.25;96.47;98823.19;6147459;28;20233;-55
2023/09/04 03:49:46;;;;;;;4.60;4.20;;;;;;;14.03;96.29;98783.63;6141705;28;20240;-55
2023/09/04 03:52:48;;;;;;;5.10;4.70;;;;;;;14.23;96.54;98823.41;6142431;28;20236;-54
2023/09/04 03:55:51;;;;;;;5.63;4.03;;;;;;;14.23;96.51;98817.25;6146394;28;20245;-52
2023/09/04 03:58:53;;;;;;;4.77;4.30;;;;;;;14.19;96.71;98820.41;6142125;28;20332;-52
2023/09/04 04:01:55;;;;;;;5.13;4.27;;;;;;;14.18;96.61;98812.59;6142387;28;20250;-54
2023/09/04 04:04:57;;;;;;;5.37;4.03;;;;;;;14.14;96.96;98806.91;6132141;28;20333;-55
2023/09/04 04:07:59;;;;;;;5.23;3.67;;;;;;;14.12;97.00;98816.22;6119773;28;20299;-54
2023/09/04 04:11:02;;;;;;;7.30;4.27;;;;;;;14.07;96.64;98814.25;6118476;28;20227;-53
2023/09/04 04:14:04;;;;;;;5.17;3.97;;;;;;;14.02;97.04;98822.19;6111906;28;20236;-54
2023/09/04 04:17:08;;;;;;;4.17;3.77;;;;;;;13.94;97.19;98814.53;6129619;28;20231;-51
2023/09/04 04:20:11;;;;;;;4.33;3.93;;;;;;;13.93;97.11;98819.06;6116187;28;20584;-52
2023/09/04 04:23:14;;;;;;;7.73;4.47;;;;;;;13.92;96.86;98828.13;6123342;28;20258;-54
2023/09/04 04:26:17;;;;;;;4.40;4.00;;;;;;;13.89;97.33;98835.81;6121564;28;20716;-55
2023/09/04 04:29:19;;;;;;;5.87;4.10;;;;;;;13.85;97.21;98840.84;6112590;28;20238;-54
2023/09/04 04:32:21;;;;;;;5.53;4.23;;;;;;;13.84;97.27;98828.53;6117694;28;20238;-55
2023/09/04 04:35:23;;;;;;;4.67;4.20;;;;;;;13.81;97.00;98828.97;6117269;28;20246;-54
2023/09/04 04:38:26;;;;;;;5.07;3.70;;;;;;;13.79;97.59;98840.97;6118425;28;20235;-52
2023/09/04 04:41:28;;;;;;;5.67;3.80;;;;;;;13.77;97.00;98838.53;6128431;28;20329;-55
2023/09/04 04:44:30;;;;;;;4.40;3.57;;;;;;;13.74;96.93;98838.16;6132631;28;20261;-55
2023/09/04 04:47:33;;;;;;;4.47;3.70;;;;;;;13.70;97.61;98831.69;6133077;28;20231;-53
2023/09/04 04:50:35;;;;;;;4.07;3.67;;;;;;;13.67;97.13;98847.16;6141870;28;20262;-55
2023/09/04 04:53:38;;;;;;;5.10;3.63;;;;;;;13.68;97.43;98846.09;6119004;28;20596;-53
2023/09/04 04:56:41;;;;;;;5.73;3.60;;;;;;;13.65;97.56;98851.94;6135249;28;20242;-55
2023/09/04 04:59:45;;;;;;;4.17;3.77;;;;;;;13.65;97.48;98843.91;6120933;28;20258;-54
2023/09/04 05:02:47;;;;;;;3.70;3.40;;;;;;;13.60;96.97;98848.31;6129675;28;20289;-55
2023/09/04 05:05:51;;;;;;;5.20;3.80;;;;;;;13.66;96.96;98852.75;6115187;28;20234;-55
2023/09/04 05:08:53;;;;;;;3.83;3.53;;;;;;;13.64;97.89;98871.72;6151999;28;20239;-54
2023/09/04 05:11:55;;;;;;;3.40;3.10;;;;;;;13.62;98.38;98884.50;6128735;28;20238;-54
2023/09/04 05:14:57;;;;;;;4.87;3.17;;;;;;;13.60;98.63;98875.91;6131775;28;20731;-53
2023/09/04 05:18:00;;;;;;;3.60;3.30;;;;;;;13.62;99.05;98878.34;6124195;28;20280;-55
2023/09/04 05:21:06;;;;;;;3.80;3.47;;;;;;;13.59;99.35;98882.28;6128401;28;20250;-55
2023/09/04 05:24:09;;;;;;;3.40;3.10;;;;;;;13.63;97.71;98877.28;6132449;28;20243;-55
2023/09/04 05:27:11;;;;;;;4.17;3.77;;;;;;;13.69;96.82;98884.38;6112308;28;20215;-53
2023/09/04 05:30:14;;;;;;;5.77;3.47;;;;;;;13.82;94.63;98880.69;6118507;28;20310;-55
2023/09/04 05:33:16;;;;;;;3.40;3.10;;;;;;;13.91;93.94;98887.31;6118243;28;20230;-53
2023/09/04 05:36:19;;;;;;;3.73;2.93;;;;;;;14.03;93.03;98890.78;6118182;28;20266;-50
2023/09/04 05:39:21;;;;;;;3.70;3.03;;;;;;;14.11;92.12;98898.50;6117970;28;20229;-52
2023/09/04 05:42:23;;;;;;;3.50;3.20;;;;;;;14.23;90.11;98890.41;6116107;28;20234;-54
2023/09/04 05:45:25;;;;;;;4.13;3.17;;;;;;;14.31;89.03;98894.63;6116520;28;20246;-55
2023/09/04 05:48:28;;;;;;;5.83;3.27;;;;;;;14.42;88.18;98904.50;6116497;28;20297;-52
2023/09/04 05:51:30;;;;;;;4.30;3.27;;;;;;;14.49;89.31;98891.00;6117937;28;20234;-53
2023/09/04 05:54:33;;;;;;;3.00;2.77;;;;;;;14.50;87.36;98887.28;6130773;28;20679;-55
2023/09/04 05:57:35;;;;;;;3.90;2.60;;;;;;;14.56;87.10;98883.63;6130445;28;20234;-54
2023/09/04 06:00:38;;;;;;;4.53;3.13;;;;;;;14.62;85.63;98891.53;6119182;28;20300;-54
2023/09/04 06:03:42;;;;;;;2.70;2.50;;;;;;;14.59;87.57;98893.91;6119579;28;20287;-53
2023/09/04 06:06:44;;;;;;;3.50;2.93;;;;;;;14.59;86.49;98888.53;6123599;28;20245;-51
2023/09/04 06:09:46;;;;;;;2.90;2.60;;;;;;;14.60;86.49;98885.59;6116190;28;20237;-55
2023/09/04 06:12:48;;;;;;;3.00;2.70;;;;;;;14.58;86.13;98890.41;6115439;28;20239;-53
2023/09/04 06:15:51;;;;;;;3.27;2.97;;;;;;;14.65;85.80;98892.94;6116011;28;20249;-55
2023/09/04 06:18:53;;;;;;;3.20;2.70;;;;;;;14.68;83.90;98897.84;6116664;28;20240;-52
2023/09/04 06:21:55;;;;;;;3.83;2.80;;;;;;;14.73;84.89;98905.97;6120483;28;20372;-55
2023/09/04 06:24:58;;;;;;;3.30;2.93;;;;;;;14.80;83.88;98912.00;6117224;28;20239;-55
2023/09/04 06:28:01;;;;;;;3.63;2.93;;;;;;;14.85;82.50;98911.28;6114532;28;20243;-53
2023/09/04 06:31:03;;;;;;;4.67;2.53;;;;;;;14.89;81.70;98918.63;6120267;28;20243;-55
2023/09/04 06:34:06;;;;;;;5.43;2.73;;;;;;;14.95;81.45;98909.63;6116378;28;20239;-55
2023/09/04 06:37:08;;;;;;;3.33;2.70;;;;;;;15.00;82.13;98919.63;6118011;28;20234;-55
2023/09/04 06:40:11;;;;;;;4.90;3.00;;;;;;;15.03;80.35;98911.13;6115777;28;20238;-55
2023/09/04 06:43:13;;;;;;;2.87;2.60;;;;;;;15.04;81.78;98910.06;6115676;28;20299;-55
2023/09/04 06:46:15;;;;;;;2.87;2.60;;;;;;;15.05;80.66;98913.53;6118630;28;20325;-56
2023/09/04 06:49:17;;;;;;;3.43;2.60;;;;;;;15.10;79.75;98927.06;6118251;28;20238;-55
2023/09/04 06:52:19;;;;;;;2.97;2.67;;;;;;;15.06;80.47;98936.63;6119012;28;20222;-53
2023/09/04 06:55:22;;;;;;;3.80;2.90;;;;;;;15.11;79.54;98931.38;6122157;28;20615;-53
2023/09/04 06:58:26;;;;;;;3.87;3.03;;;;;;;15.13;78.71;98931.97;6122080;28;20234;-55
2023/09/04 07:01:28;;;;;;;2.97;2.70;;;;;;;15.16;79.99;98937.63;6119576;28;20879;-56
2023/09/04 07:04:30;;;;;;;4.30;2.80;;;;;;;15.21;78.53;98931.53;6120198;28;20720;-56
2023/09/04 07:07:35;;;;;;;2.73;2.53;;;;;;;15.23;79.67;98932.94;6133322;28;20241;-55
2023/09/04 07:10:37;;;;;;;3.30;2.37;;;;;;;15.27;78.58;98937.81;6142427;28;20241;-53
2023/09/04 07:13:39;;;;;;;3.73;2.67;;;;;;;15.36;78.41;98944.44;6148904;28;20284;-56
2023/09/04 07:16:41;;;;;;;2.17;2.03;;;;;;;15.43;78.51;98945.09;6141493;28;20238;-55
2023/09/04 07:19:58;;;;;;;3.10;2.73;;;;;;;15.31;77.78;98915.63;6142072;28;20463;-56
2023/09/04 07:23:00;;;;;;;3.83;2.57;;;;;;;15.58;76.48;98942.69;6143663;28;20241;-56
2023/09/04 07:26:21;;;;;;;4.03;2.20;;;;;;;15.64;77.47;98948.97;6144353;28;20262;-54
2023/09/04 07:29:23;;;;;;;4.73;2.40;;;;;;;15.83;75.35;98945.00;6143730;28;20234;-56
2023/09/04 07:32:25;;;;;;;2.23;2.03;;;;;;;15.88;76.13;98938.91;6144398;28;20285;-55
2023/09/04 07:35:28;;;;;;;2.40;2.20;;;;;;;15.93;74.70;98931.72;6141276;28;20245;-56
2023/09/04 07:38:31;;;;;;;2.30;2.10;;;;;;;16.00;75.02;98921.59;6145091;28;20680;-54
2023/09/04 07:41:33;;;;;;;2.30;2.10;;;;;;;15.90;75.08;98910.69;6141321;28;20712;-57
2023/09/04 07:44:35;;;;;;;4.77;2.03;;;;;;;16.06;74.75;98929.75;6136238;28;20226;-56
2023/09/04 07:47:37;;;;;;;3.83;2.40;;;;;;;15.81;74.59;98896.06;6143378;28;20605;-56
2023/09/04 07:50:40;;;;;;;2.80;2.13;;;;;;;16.24;71.90;98930.28;6143011;28;20225;-56
2023/09/04 07:53:42;;;;;;;2.67;2.10;;;;;;;16.22;72.51;98918.97;6145584;28;20261;-57
2023/09/04 07:56:44;;;;;;;2.93;2.17;;;;;;;16.39;72.44;98918.09;6140647;28;20246;-53
2023/09/04 07:59:46;;;;;;;2.10;1.90;;;;;;;16.39;72.60;98913.53;6159867;28;20237;-56
2023/09/04 08:02:49;;;;;;;2.27;2.07;;;;;;;16.48;72.72;98909.34;6142429;28;20241;-56
2023/09/04 08:05:51;;;;;;;2.40;2.20;;;;;;;16.52;72.28;98915.06;6144470;28;20604;-56
2023/09/04 08:08:53;;;;;;;3.37;2.47;;;;;;;16.64;70.40;98910.34;6139928;28;20248;-56
2023/09/04 08:11:55;;;;;;;3.37;2.23;;;;;;;16.73;70.48;98918.84;6144761;28;20325;-56
2023/09/04 08:14:57;;;;;;;3.33;2.40;;;;;;;16.87;70.71;98920.06;6131307;28;20239;-57
2023/09/04 08:18:00;;;;;;;4.27;2.20;;;;;;;17.07;67.18;98913.28;6141495;28;20244;-56
2023/09/04 08:21:03;;;;;;;6.23;2.17;;;;;;;17.02;68.91;98922.13;6140311;28;20262;-55
2023/09/04 08:24:05;;;;;;;7.17;2.67;;;;;;;17.18;67.62;98929.28;6146707;28;20226;-55
2023/09/04 08:27:07;;;;;;;2.67;1.90;;;;;;;16.93;62.73;98900.22;6141141;28;20226;-56
2023/09/04 08:30:10;;;;;;;3.57;2.00;;;;;;;17.10;62.83;98926.25;6144137;28;20359;-55
2023/09/04 08:33:13;;;;;;;2.67;1.90;;;;;;;16.95;63.26;98905.38;6141144;28;20721;-55
2023/09/04 08:36:15;;;;;;;2.80;2.07;;;;;;;17.14;65.06;98916.56;6141405;28;20234;-55
2023/09/04 08:39:17;;;;;;;2.43;1.80;;;;;;;17.50;60.84;98921.25;6145597;28;20217;-57
2023/09/04 08:42:20;;;;;;;3.03;1.93;;;;;;;17.42;60.70;98910.94;6138070;28;20584;-56
2023/09/04 08:45:23;;;;;;;2.80;2.00;;;;;;;17.41;60.63;98913.88;6143190;28;20230;-56
2023/09/04 08:48:29;;;;;;;3.43;2.20;;;;;;;17.43;60.57;98914.44;6140569;28;20241;-57
2023/09/04 08:51:32;;;;;;;4.97;2.50;;;;;;;17.48;61.30;98915.28;6154238;28;20237;-57
2023/09/04 08:54:35;;;;;;;4.23;2.20;;;;;;;17.58;60.01;98911.88;6140526;28;20267;-57
2023/09/04 08:57:39;;;;;;;3.33;2.00;;;;;;;17.66;60.19;98919.50;6144405;28;20222;-57
2023/09/04 09:00:45;;;;;;;3.20;1.87;;;;;;;17.44;60.25;98891.84;6142430;28;20711;-56
2023/09/04 09:03:48;;;;;;;3.33;2.40;;;;;;;17.64;60.92;98907.38;6146370;28;20317;-57
2023/09/04 09:06:50;;;;;;;2.13;1.90;;;;;;;17.87;58.94;98912.41;6144038;28;20226;-55
2023/09/04 09:09:53;;;;;;;2.87;2.03;;;;;;;17.82;60.05;98908.84;6140309;28;20230;-57
2023/09/04 09:12:55;;;;;;;3.37;2.20;;;;;;;17.95;58.97;98908.41;6140617;28;20258;-56
2023/09/04 09:15:57;;;;;;;2.93;2.13;;;;;;;17.93;59.82;98910.53;6142939;28;20609;-55
2023/09/04 09:19:01;;;;;;;2.87;2.00;;;;;;;18.05;59.92;98905.78;6141229;28;20245;-56
2023/09/04 09:22:20;;;;;;;2.00;1.80;;;;;;;18.02;57.05;98912.50;6143056;28;20378;-57
2023/09/04 09:25:23;;;;;;;3.60;1.60;;;;;;;18.10;55.69;98913.91;6142946;28;20237;-56
2023/09/04 09:28:25;;;;;;;2.20;1.70;;;;;;;17.89;56.57;98896.78;6140496;28;20234;-56
2023/09/04 09:31:28;;;;;;;2.17;1.77;;;;;;;18.12;58.14;98927.13;6144651;28;20238;-54
2023/09/04 09:34:34;;;;;;;1.47;1.37;;;;;;;18.24;55.27;98925.06;6141063;28;20238;-57
2023/09/04 09:37:36;;;;;;;2.40;1.77;;;;;;;18.24;53.80;98917.78;6142921;28;20233;-57
2023/09/04 09:40:38;;;;;;;2.03;1.80;;;;;;;18.29;56.13;98919.69;6140574;28;20237;-56
2023/09/04 09:43:41;;;;;;;1.97;1.67;;;;;;;18.40;54.97;98915.16;6138708;28;20272;-54
2023/09/04 09:46:43;;;;;;;4.27;1.67;;;;;;;18.22;56.87;98924.47;6140889;28;20242;-54
2023/09/04 09:49:46;;;;;;;2.73;1.70;;;;;;;18.18;53.73;98915.31;6144055;28;20332;-57
2023/09/04 09:52:59;;;;;;;1.90;1.70;;;;;;;18.22;56.00;98903.72;6135415;28;20257;-56
2023/09/04 09:56:02;;;;;;;2.97;1.80;;;;;;;18.35;56.18;98920.53;6140125;28;20238;-56
2023/09/04 09:59:05;;;;;;;3.47;1.50;;;;;;;18.28;55.71;98926.97;6138479;28;20238;-57
2023/09/04 10:02:07;;;;;;;1.70;1.60;;;;;;;18.24;56.85;98920.47;6143817;28;20237;-57
2023/09/04 10:05:10;;;;;;;2.27;1.80;;;;;;;18.07;59.48;98925.19;6143761;28;20218;-56
2023/09/04 10:08:13;;;;;;;2.23;1.60;;;;;;;17.89;57.66;98934.53;6140745;28;20245;-57
2023/09/04 10:11:16;;;;;;;3.87;1.53;;;;;;;17.83;57.42;98922.06;6129744;28;20238;-56
2023/09/04 10:14:31;;;;;;;2.10;1.90;;;;;;;17.90;56.56;98898.41;6142383;28;20233;-56
2023/09/04 10:17:36;;;;;;;1.40;1.30;;;;;;;18.16;56.75;98915.56;6138079;28;20234;-56
2023/09/04 10:20:41;;;;;;;2.73;1.57;;;;;;;18.46;56.53;98904.09;6138947;28;20372;-57
2023/09/04 10:23:56;;;;;;;4.33;1.60;;;;;;;18.67;55.87;98906.88;6145016;28;20230;-53
2023/09/04 10:27:05;;;;;;;3.67;1.70;;;;;;;18.81;53.54;98910.75;6143020;28;20276;-57
2023/09/04 10:30:14;;;;;;;6.13;2.00;;;;;;;18.80;53.68;98893.75;6143389;28;20269;-51
2023/09/04 10:33:17;;;;;;;2.93;1.67;;;;;;;18.72;54.11;98890.78;6143819;28;20218;-55
2023/09/04 10:36:20;;;;;;;3.63;1.80;;;;;;;18.88;53.12;98895.13;6142343;28;20246;-56
2023/09/04 10:39:23;;;;;;;3.00;1.70;;;;;;;19.01;52.88;98888.41;6144454;28;20311;-56
2023/09/04 10:42:28;;;;;;;2.83;1.30;;;;;;;19.23;53.52;98874.66;6147703;28;20226;-56
2023/09/04 10:45:32;;;;;;;1.40;1.30;;;;;;;19.48;52.11;98879.28;6142413;28;20233;-57
2023/09/04 10:48:50;;;;;;;1.67;1.40;;;;;;;19.15;54.02;98859.78;6143199;28;20251;-56
2023/09/04 10:51:52;;;;;;;2.13;1.50;;;;;;;19.14;55.59;98870.88;6145048;28;20647;-56
2023/09/04 10:55:11;;;;;;;1.63;1.53;;;;;;;18.93;55.50;98870.03;6124249;28;20626;-55
2023/09/04 10:58:14;;;;;;;1.63;1.53;;;;;;;18.74;56.17;98867.81;6149498;28;20234;-54
2023/09/04 11:01:38;;;;;;;2.53;1.50;;;;;;;18.93;55.40;98870.84;6140844;28;20238;-56
2023/09/04 11:04:40;;;;;;;2.80;1.30;;;;;;;19.16;52.71;98868.69;6142425;28;20243;-51
2023/09/04 11:07:42;;;;;;;2.20;1.60;;;;;;;19.22;51.71;98862.25;6146394;28;20244;-57
2023/09/04 11:10:58;;;;;;;3.70;1.90;;;;;;;19.43;51.14;98874.69;6141601;28;20723;-56
2023/09/04 11:14:02;;;;;;;2.83;1.60;;;;;;;19.42;50.54;98875.75;6142578;28;20269;-57
2023/09/04 11:17:07;;;;;;;2.17;1.60;;;;;;;19.41;51.30;98871.44;6141680;28;20276;-55
2023/09/04 11:20:10;;;;;;;3.70;1.63;;;;;;;19.55;49.23;98867.09;6144296;28;20238;-57
2023/09/04 11:23:12;;;;;;;2.13;1.70;;;;;;;19.59;46.56;98873.63;6143482;28;20245;-57
2023/09/04 11:26:14;;;;;;;2.57;1.63;;;;;;;19.67;46.97;98879.56;6142769;28;20233;-54
2023/09/04 11:29:19;;;;;;;2.37;1.33;;;;;;;19.56;48.87;98878.75;6143660;28;20233;-56
2023/09/04 11:32:22;;;;;;;2.50;1.60;;;;;;;19.53;49.59;98880.09;6142144;28;20237;-55
2023/09/04 11:35:25;;;;;;;3.50;1.50;;;;;;;19.61;48.97;98875.25;6144611;28;20725;-57
2023/09/04 11:38:32;;;;;;;2.50;1.43;;;;;;;19.70;48.51;98866.31;6144025;28;20253;-57
2023/09/04 11:41:35;;;;;;;1.93;1.50;;;;;;;19.87;46.79;98867.94;6141581;28;20709;-56
2023/09/04 11:44:37;;;;;;;2.30;1.60;;;;;;;19.86;47.59;98861.72;6143560;28;20246;-56
2023/09/04 11:47:40;;;;;;;2.23;1.63;;;;;;;20.07;48.28;98862.47;6142078;28;20652;-56
2023/09/04 11:50:45;;;;;;;1.73;1.20;;;;;;;20.21;47.15;98860.00;6143120;28;20234;-57
2023/09/04 11:53:48;;;;;;;2.00;1.50;;;;;;;20.17;47.15;98848.91;6141561;28;20716;-54
2023/09/04 11:56:50;;;;;;;6.10;2.03;;;;;;;20.23;46.37;98847.78;6144148;28;20242;-56
2023/09/04 11:59:52;;;;;;;2.47;1.57;;;;;;;20.39;44.46;98843.13;6141712;28;20690;-55
2023/09/04 12:02:54;;;;;;;1.33;1.23;;;;;;;20.27;44.96;98839.94;6141104;28;20245;-55
2023/09/04 12:05:56;;;;;;;1.57;1.43;;;;;;;20.48;46.05;98836.09;6144854;28;20245;-57
2023/09/04 12:08:59;;;;;;;1.43;1.30;;;;;;;20.47;46.31;98826.34;6142850;28;20243;-57
2023/09/04 12:12:01;;;;;;;2.57;1.67;;;;;;;20.47;45.91;98830.97;6142827;28;20230;-57
2023/09/04 12:15:04;;;;;;;2.03;1.60;;;;;;;20.41;46.78;98813.91;6140802;28;20278;-56
2023/09/04 12:18:06;;;;;;;2.10;1.50;;;;;;;20.59;43.52;98826.00;6140950;28;20226;-58
2023/09/04 12:21:10;;;;;;;2.60;1.50;;;;;;;20.51;43.24;98823.91;6143838;28;20313;-56
2023/09/04 12:24:14;;;;;;;2.23;1.47;;;;;;;20.24;44.52;98798.00;6146676;28;20225;-58
2023/09/04 12:27:17;;;;;;;1.80;1.63;;;;;;;20.28;45.04;98809.09;6138760;28;20253;-56
2023/09/04 12:30:22;;;;;;;2.27;1.70;;;;;;;20.27;45.76;98777.72;6142993;28;20237;-55
2023/09/04 12:33:30;;;;;;;2.30;1.50;;;;;;;20.46;44.66;98794.94;6140909;28;20248;-54
2023/09/04 12:36:33;;;;;;;2.00;1.53;;;;;;;20.61;44.92;98799.47;6143829;28;20234;-56
2023/09/04 12:39:36;;;;;;;1.80;1.40;;;;;;;20.58;44.57;98770.25;6142429;28;20317;-56
2023/09/04 12:42:38;;;;;;;1.57;1.17;;;;;;;20.68;45.39;98786.44;6142776;28;20233;-56
2023/09/04 12:45:41;;;;;;;1.47;1.33;;;;;;;20.67;46.57;98778.59;6142533;28;20233;-53
2023/09/04 12:48:43;;;;;;;3.17;1.73;;;;;;;20.81;41.04;98798.53;6140229;28;20708;-56
2023/09/04 12:51:45;;;;;;;1.33;1.20;;;;;;;20.71;41.32;98788.59;6140948;28;20325;-56
2023/09/04 12:54:48;;;;;;;2.33;1.70;;;;;;;20.75;42.38;98791.56;6140698;28;20349;-56
2023/09/04 12:57:59;;;;;;;2.03;1.57;;;;;;;20.63;43.91;98786.47;6143126;28;20242;-56
2023/09/04 13:01:02;;;;;;;1.40;1.30;;;;;;;20.43;44.50;98770.31;6140518;28;20272;-57
2023/09/04 13:04:06;;;;;;;2.37;1.27;;;;;;;20.54;44.81;98771.91;6140147;28;20226;-56
2023/09/04 13:07:08;;;;;;;2.60;1.80;;;;;;;20.70;42.95;98740.94;6139858;28;20381;-56
2023/09/04 13:10:10;;;;;;;4.27;1.50;;;;;;;20.61;43.91;98761.56;6143191;28;20667;-55
2023/09/04 13:13:13;;;;;;;1.87;1.33;;;;;;;20.58;44.69;98749.41;6141160;28;20298;-56
2023/09/04 13:16:15;;;;;;;2.67;1.90;;;;;;;20.69;44.22;98749.31;6140509;28;20704;-56
2023/09/04 13:19:17;;;;;;;1.87;1.40;;;;;;;20.77;44.62;98746.03;6141315;28;20585;-56
2023/09/04 13:22:20;;;;;;;2.33;1.13;;;;;;;20.85;44.59;98753.56;6144772;28;20237;-54
2023/09/04 13:25:22;;;;;;;4.27;1.70;;;;;;;20.86;44.24;98752.47;6141631;28;20241;-53
2023/09/04 13:28:24;;;;;;;2.40;1.70;;;;;;;20.80;44.97;98746.28;6142349;28;20238;-53
2023/09/04 13:31:28;;;;;;;1.70;1.60;;;;;;;20.73;44.92;98748.47;6140760;28;20241;-54
2023/09/04 13:34:30;;;;;;;3.37;1.60;;;;;;;20.56;44.95;98738.06;6139601;28;20704;-55
2023/09/04 13:37:32;;;;;;;1.33;1.20;;;;;;;20.61;46.04;98743.44;6140174;28;20242;-57
2023/09/04 13:40:36;;;;;;;2.00;1.33;;;;;;;20.61;45.84;98742.63;6139671;28;20245;-55
2023/09/04 13:43:40;;;;;;;3.20;1.40;;;;;;;20.70;45.35;98727.41;6139792;28;20234;-56
2023/09/04 13:46:42;;;;;;;2.20;1.60;;;;;;;20.72;45.52;98736.03;6140908;28;20383;-56
2023/09/04 13:49:45;;;;;;;1.80;1.53;;;;;;;20.84;45.18;98728.38;6142767;28;20249;-56
2023/09/04 13:52:47;;;;;;;2.87;1.83;;;;;;;20.97;45.01;98732.31;6140289;28;20315;-56
2023/09/04 13:55:49;;;;;;;2.30;1.50;;;;;;;20.87;45.20;98733.22;6140284;28;20250;-56
2023/09/04 13:58:51;;;;;;;1.77;1.60;;;;;;;20.87;44.91;98724.28;6142056;28;20344;-55
2023/09/04 14:01:54;;;;;;;2.50;1.57;;;;;;;20.87;44.91;98729.69;6143334;28;20294;-55
2023/09/04 14:04:56;;;;;;;1.13;1.03;;;;;;;20.73;45.76;98728.72;6145801;28;20242;-55
2023/09/04 14:07:58;;;;;;;2.10;1.60;;;;;;;20.73;44.88;98724.13;6151570;28;20246;-56
2023/09/04 14:11:01;;;;;;;3.27;1.60;;;;;;;20.53;45.30;98711.53;6145800;28;20372;-54
2023/09/04 14:14:04;;;;;;;2.13;1.40;;;;;;;20.65;45.39;98721.22;6147182;28;20725;-55
2023/09/04 14:17:06;;;;;;;1.73;1.50;;;;;;;20.69;45.79;98728.50;6144187;28;20240;-58
2023/09/04 14:20:09;;;;;;;2.03;1.50;;;;;;;20.55;46.60;98722.91;6142820;28;20234;-56
2023/09/04 14:23:11;;;;;;;1.90;1.30;;;;;;;20.46;46.88;98727.25;6146239;28;20238;-55